sensor_id;sensor_type;location;lat;lon;timestamp;P1;durP1;ratioP1;P2;durP2;ratioP2
4766;SDS011;2397;53.576;9.746;2023-04-30T00:00:27;13.40;;;7.50;;
4766;SDS011;2397;53.576;9.746;2023-04-30T00:02:53;17.73;;;7.73;;
4766;SDS011;2397;53.576;9.746;2023-04-30T00:05:21;14.13;;;7.63;;
4766;SDS011;2397;53.576;9.746;2023-04-30T00:07:47;9.40;;;7.07;;
4766;SDS011;2397;53.576;9.746;2023-04-30T00:10:14;13.00;;;7.40;;
4766;SDS011;2397;53.576;9.746;2023-04-30T00:12:40;15.30;;;7.13;;
4766;SDS011;2397;53.576;9.746;2023-04-30T00:15:07;11.53;;;7.67;;
4766;SDS011;2397;53.576;9.746;2023-04-30T00:17:34;11.60;;;7.60;;
4766;SDS011;2397;53.576;9.746;2023-04-30T00:20:00;15.60;;;8.77;;
4766;SDS011;2397;53.576;9.746;2023-04-30T00:22:27;15.60;;;7.67;;
4766;SDS011;2397;53.576;9.746;2023-04-30T00:24:53;11.63;;;7.00;;
4766;SDS011;2397;53.576;9.746;2023-04-30T00:27:20;13.73;;;7.33;;
4766;SDS011;2397;53.576;9.746;2023-04-30T00:29:46;7.63;;;6.83;;
4766;SDS011;2397;53.576;9.746;2023-04-30T00:32:13;11.37;;;6.40;;
4766;SDS011;2397;53.576;9.746;2023-04-30T00:34:40;10.97;;;6.57;;
4766;SDS011;2397;53.576;9.746;2023-04-30T00:37:07;10.27;;;6.90;;
4766;SDS011;2397;53.576;9.746;2023-04-30T00:39:34;7.73;;;5.00;;
4766;SDS011;2397;53.576;9.746;2023-04-30T00:42:00;10.00;;;5.70;;
4766;SDS011;2397;53.576;9.746;2023-04-30T00:44:27;8.20;;;6.30;;
4766;SDS011;2397;53.576;9.746;2023-04-30T00:46:54;8.90;;;5.70;;
4766;SDS011;2397;53.576;9.746;2023-04-30T00:49:21;9.50;;;5.90;;
4766;SDS011;2397;53.576;9.746;2023-04-30T00:51:47;10.90;;;5.50;;
4766;SDS011;2397;53.576;9.746;2023-04-30T00:54:14;8.87;;;4.80;;
4766;SDS011;2397;53.576;9.746;2023-04-30T00:56:41;6.20;;;5.23;;
4766;SDS011;2397;53.576;9.746;2023-04-30T00:59:08;6.67;;;4.93;;
4766;SDS011;2397;53.576;9.746;2023-04-30T01:01:35;16.00;;;6.30;;
4766;SDS011;2397;53.576;9.746;2023-04-30T01:04:02;15.33;;;5.30;;
4766;SDS011;2397;53.576;9.746;2023-04-30T01:06:30;17.57;;;5.00;;
4766;SDS011;2397;53.576;9.746;2023-04-30T01:08:57;8.80;;;5.00;;
4766;SDS011;2397;53.576;9.746;2023-04-30T01:11:29;11.97;;;5.83;;
4766;SDS011;2397;53.576;9.746;2023-04-30T01:19:48;10.73;;;4.30;;
4766;SDS011;2397;53.576;9.746;2023-04-30T01:22:25;11.30;;;4.60;;
4766;SDS011;2397;53.576;9.746;2023-04-30T01:25:05;15.60;;;4.87;;
4766;SDS011;2397;53.576;9.746;2023-04-30T01:30:35;8.10;;;4.50;;
4766;SDS011;2397;53.576;9.746;2023-04-30T01:33:02;6.77;;;4.60;;
4766;SDS011;2397;53.576;9.746;2023-04-30T01:40:57;7.33;;;4.87;;
4766;SDS011;2397;53.576;9.746;2023-04-30T01:43:44;6.30;;;4.43;;
4766;SDS011;2397;53.576;9.746;2023-04-30T01:46:31;8.97;;;4.70;;
4766;SDS011;2397;53.576;9.746;2023-04-30T01:51:44;6.50;;;4.50;;
4766;SDS011;2397;53.576;9.746;2023-04-30T01:57:00;12.23;;;4.90;;
4766;SDS011;2397;53.576;9.746;2023-04-30T01:59:34;5.03;;;3.97;;
4766;SDS011;2397;53.576;9.746;2023-04-30T02:02:03;11.07;;;5.13;;
4766;SDS011;2397;53.576;9.746;2023-04-30T02:04:31;8.20;;;5.03;;
4766;SDS011;2397;53.576;9.746;2023-04-30T02:06:58;10.03;;;5.63;;
4766;SDS011;2397;53.576;9.746;2023-04-30T02:09:25;7.90;;;4.80;;
4766;SDS011;2397;53.576;9.746;2023-04-30T02:11:52;13.03;;;6.03;;
4766;SDS011;2397;53.576;9.746;2023-04-30T02:14:18;9.60;;;5.87;;
4766;SDS011;2397;53.576;9.746;2023-04-30T02:16:45;17.57;;;8.20;;
4766;SDS011;2397;53.576;9.746;2023-04-30T02:19:11;16.77;;;8.60;;
4766;SDS011;2397;53.576;9.746;2023-04-30T02:21:38;14.17;;;9.60;;
4766;SDS011;2397;53.576;9.746;2023-04-30T02:24:05;17.53;;;8.90;;
4766;SDS011;2397;53.576;9.746;2023-04-30T02:26:31;15.53;;;9.80;;
4766;SDS011;2397;53.576;9.746;2023-04-30T02:28:58;11.67;;;8.60;;
4766;SDS011;2397;53.576;9.746;2023-04-30T02:31:24;14.20;;;8.53;;
4766;SDS011;2397;53.576;9.746;2023-04-30T02:33:51;16.67;;;8.83;;
4766;SDS011;2397;53.576;9.746;2023-04-30T02:36:18;13.13;;;7.87;;
4766;SDS011;2397;53.576;9.746;2023-04-30T02:38:45;17.90;;;9.13;;
4766;SDS011;2397;53.576;9.746;2023-04-30T02:41:11;16.27;;;8.80;;
4766;SDS011;2397;53.576;9.746;2023-04-30T02:43:38;12.77;;;8.50;;
4766;SDS011;2397;53.576;9.746;2023-04-30T02:46:05;16.37;;;8.20;;
4766;SDS011;2397;53.576;9.746;2023-04-30T02:48:31;21.73;;;8.90;;
4766;SDS011;2397;53.576;9.746;2023-04-30T02:50:58;12.60;;;8.83;;
4766;SDS011;2397;53.576;9.746;2023-04-30T02:53:25;11.33;;;7.60;;
4766;SDS011;2397;53.576;9.746;2023-04-30T02:55:51;11.80;;;7.57;;
4766;SDS011;2397;53.576;9.746;2023-04-30T02:58:18;10.33;;;7.73;;
4766;SDS011;2397;53.576;9.746;2023-04-30T03:00:44;7.33;;;6.17;;
4766;SDS011;2397;53.576;9.746;2023-04-30T03:03:11;8.80;;;5.97;;
4766;SDS011;2397;53.576;9.746;2023-04-30T03:05:38;9.80;;;5.87;;
4766;SDS011;2397;53.576;9.746;2023-04-30T03:08:04;8.50;;;5.80;;
4766;SDS011;2397;53.576;9.746;2023-04-30T03:10:31;11.10;;;5.23;;
4766;SDS011;2397;53.576;9.746;2023-04-30T03:12:57;10.40;;;5.50;;
4766;SDS011;2397;53.576;9.746;2023-04-30T03:15:24;7.70;;;5.90;;
4766;SDS011;2397;53.576;9.746;2023-04-30T03:17:51;13.30;;;6.70;;
4766;SDS011;2397;53.576;9.746;2023-04-30T03:20:17;8.53;;;5.87;;
4766;SDS011;2397;53.576;9.746;2023-04-30T03:22:44;11.90;;;5.50;;
4766;SDS011;2397;53.576;9.746;2023-04-30T03:25:11;7.30;;;6.20;;
4766;SDS011;2397;53.576;9.746;2023-04-30T03:27:37;7.30;;;6.40;;
4766;SDS011;2397;53.576;9.746;2023-04-30T03:30:04;9.30;;;5.77;;
4766;SDS011;2397;53.576;9.746;2023-04-30T03:32:32;10.40;;;5.53;;
4766;SDS011;2397;53.576;9.746;2023-04-30T03:34:59;8.00;;;5.90;;
4766;SDS011;2397;53.576;9.746;2023-04-30T03:37:25;10.13;;;5.90;;
4766;SDS011;2397;53.576;9.746;2023-04-30T03:39:52;4.93;;;4.43;;
4766;SDS011;2397;53.576;9.746;2023-04-30T03:42:19;8.50;;;4.90;;
4766;SDS011;2397;53.576;9.746;2023-04-30T03:44:46;6.13;;;5.00;;
4766;SDS011;2397;53.576;9.746;2023-04-30T03:47:13;6.77;;;5.03;;
4766;SDS011;2397;53.576;9.746;2023-04-30T03:49:39;8.80;;;5.60;;
4766;SDS011;2397;53.576;9.746;2023-04-30T03:52:06;8.00;;;5.90;;
4766;SDS011;2397;53.576;9.746;2023-04-30T03:54:32;9.33;;;5.10;;
4766;SDS011;2397;53.576;9.746;2023-04-30T03:57:00;7.80;;;5.27;;
4766;SDS011;2397;53.576;9.746;2023-04-30T03:59:30;7.70;;;5.50;;
4766;SDS011;2397;53.576;9.746;2023-04-30T04:01:58;10.50;;;5.50;;
4766;SDS011;2397;53.576;9.746;2023-04-30T04:04:26;9.37;;;5.97;;
4766;SDS011;2397;53.576;9.746;2023-04-30T04:06:52;11.23;;;5.67;;
4766;SDS011;2397;53.576;9.746;2023-04-30T04:09:19;7.90;;;5.23;;
4766;SDS011;2397;53.576;9.746;2023-04-30T04:11:46;7.50;;;5.60;;
4766;SDS011;2397;53.576;9.746;2023-04-30T04:14:12;7.30;;;5.53;;
4766;SDS011;2397;53.576;9.746;2023-04-30T04:16:40;13.13;;;5.50;;
4766;SDS011;2397;53.576;9.746;2023-04-30T04:19:07;8.17;;;4.70;;
4766;SDS011;2397;53.576;9.746;2023-04-30T04:21:35;11.30;;;5.73;;
4766;SDS011;2397;53.576;9.746;2023-04-30T04:24:06;13.00;;;5.63;;
4766;SDS011;2397;53.576;9.746;2023-04-30T04:26:34;5.43;;;4.60;;
4766;SDS011;2397;53.576;9.746;2023-04-30T04:29:02;7.63;;;5.53;;
4766;SDS011;2397;53.576;9.746;2023-04-30T04:31:30;8.17;;;4.90;;
4766;SDS011;2397;53.576;9.746;2023-04-30T04:33:58;8.43;;;5.47;;
4766;SDS011;2397;53.576;9.746;2023-04-30T04:36:26;7.33;;;5.13;;
4766;SDS011;2397;53.576;9.746;2023-04-30T04:38:57;7.23;;;4.87;;
4766;SDS011;2397;53.576;9.746;2023-04-30T04:41:28;6.27;;;4.93;;
4766;SDS011;2397;53.576;9.746;2023-04-30T04:43:56;6.70;;;5.70;;
4766;SDS011;2397;53.576;9.746;2023-04-30T04:46:23;14.50;;;5.77;;
4766;SDS011;2397;53.576;9.746;2023-04-30T04:48:50;7.07;;;5.70;;
4766;SDS011;2397;53.576;9.746;2023-04-30T04:51:18;8.23;;;5.57;;
4766;SDS011;2397;53.576;9.746;2023-04-30T04:53:45;9.90;;;6.00;;
4766;SDS011;2397;53.576;9.746;2023-04-30T04:56:12;7.47;;;6.00;;
4766;SDS011;2397;53.576;9.746;2023-04-30T04:58:40;13.60;;;5.90;;
4766;SDS011;2397;53.576;9.746;2023-04-30T05:01:07;10.90;;;6.13;;
4766;SDS011;2397;53.576;9.746;2023-04-30T05:03:34;11.73;;;5.47;;
4766;SDS011;2397;53.576;9.746;2023-04-30T05:06:04;10.43;;;6.20;;
4766;SDS011;2397;53.576;9.746;2023-04-30T05:08:31;7.90;;;5.43;;
4766;SDS011;2397;53.576;9.746;2023-04-30T05:10:57;6.63;;;5.30;;
4766;SDS011;2397;53.576;9.746;2023-04-30T05:13:24;9.70;;;5.80;;
4766;SDS011;2397;53.576;9.746;2023-04-30T05:15:52;8.00;;;5.23;;
4766;SDS011;2397;53.576;9.746;2023-04-30T05:18:19;10.37;;;5.53;;
4766;SDS011;2397;53.576;9.746;2023-04-30T05:20:46;10.13;;;5.43;;
4766;SDS011;2397;53.576;9.746;2023-04-30T05:23:12;10.33;;;6.07;;
4766;SDS011;2397;53.576;9.746;2023-04-30T05:25:39;7.30;;;5.40;;
4766;SDS011;2397;53.576;9.746;2023-04-30T05:28:05;11.80;;;6.37;;
4766;SDS011;2397;53.576;9.746;2023-04-30T05:30:32;12.27;;;5.70;;
4766;SDS011;2397;53.576;9.746;2023-04-30T05:32:58;11.27;;;6.40;;
4766;SDS011;2397;53.576;9.746;2023-04-30T05:35:25;8.00;;;5.40;;
4766;SDS011;2397;53.576;9.746;2023-04-30T05:37:51;8.73;;;5.40;;
4766;SDS011;2397;53.576;9.746;2023-04-30T05:40:18;17.77;;;6.30;;
4766;SDS011;2397;53.576;9.746;2023-04-30T05:42:45;13.63;;;5.80;;
4766;SDS011;2397;53.576;9.746;2023-04-30T05:45:12;9.73;;;4.83;;
4766;SDS011;2397;53.576;9.746;2023-04-30T05:47:39;9.77;;;5.57;;
4766;SDS011;2397;53.576;9.746;2023-04-30T05:50:06;9.03;;;5.73;;
4766;SDS011;2397;53.576;9.746;2023-04-30T05:52:35;9.60;;;5.00;;
4766;SDS011;2397;53.576;9.746;2023-04-30T05:55:01;12.53;;;5.43;;
4766;SDS011;2397;53.576;9.746;2023-04-30T05:57:28;9.70;;;4.93;;
4766;SDS011;2397;53.576;9.746;2023-04-30T05:59:54;6.70;;;5.07;;
4766;SDS011;2397;53.576;9.746;2023-04-30T06:02:21;12.67;;;6.13;;
4766;SDS011;2397;53.576;9.746;2023-04-30T06:04:48;8.67;;;5.43;;
4766;SDS011;2397;53.576;9.746;2023-04-30T06:07:15;10.53;;;5.30;;
4766;SDS011;2397;53.576;9.746;2023-04-30T06:09:41;10.87;;;5.87;;
4766;SDS011;2397;53.576;9.746;2023-04-30T06:12:08;9.27;;;5.53;;
4766;SDS011;2397;53.576;9.746;2023-04-30T06:14:35;9.33;;;5.33;;
4766;SDS011;2397;53.576;9.746;2023-04-30T06:17:01;9.57;;;5.50;;
4766;SDS011;2397;53.576;9.746;2023-04-30T06:19:28;9.67;;;4.53;;
4766;SDS011;2397;53.576;9.746;2023-04-30T06:21:55;13.90;;;5.10;;
4766;SDS011;2397;53.576;9.746;2023-04-30T06:24:21;9.47;;;3.93;;
4766;SDS011;2397;53.576;9.746;2023-04-30T06:26:48;7.93;;;3.70;;
4766;SDS011;2397;53.576;9.746;2023-04-30T06:29:14;10.03;;;3.53;;
4766;SDS011;2397;53.576;9.746;2023-04-30T06:31:41;7.00;;;3.97;;
4766;SDS011;2397;53.576;9.746;2023-04-30T06:34:07;9.27;;;3.77;;
4766;SDS011;2397;53.576;9.746;2023-04-30T06:36:34;7.23;;;3.70;;
4766;SDS011;2397;53.576;9.746;2023-04-30T06:39:00;10.80;;;3.47;;
4766;SDS011;2397;53.576;9.746;2023-04-30T06:41:27;9.30;;;3.87;;
4766;SDS011;2397;53.576;9.746;2023-04-30T06:43:54;6.43;;;3.33;;
4766;SDS011;2397;53.576;9.746;2023-04-30T06:46:20;8.70;;;3.50;;
4766;SDS011;2397;53.576;9.746;2023-04-30T06:48:47;8.97;;;3.50;;
4766;SDS011;2397;53.576;9.746;2023-04-30T06:51:14;3.63;;;3.33;;
4766;SDS011;2397;53.576;9.746;2023-04-30T06:53:40;3.67;;;2.90;;
4766;SDS011;2397;53.576;9.746;2023-04-30T06:56:07;6.23;;;3.27;;
4766;SDS011;2397;53.576;9.746;2023-04-30T06:58:33;8.43;;;2.80;;
4766;SDS011;2397;53.576;9.746;2023-04-30T07:01:00;9.27;;;2.80;;
4766;SDS011;2397;53.576;9.746;2023-04-30T07:03:26;10.93;;;3.63;;
4766;SDS011;2397;53.576;9.746;2023-04-30T07:05:53;5.33;;;3.00;;
4766;SDS011;2397;53.576;9.746;2023-04-30T07:08:20;5.40;;;3.07;;
4766;SDS011;2397;53.576;9.746;2023-04-30T07:10:47;7.33;;;3.63;;
4766;SDS011;2397;53.576;9.746;2023-04-30T07:13:13;3.53;;;2.67;;
4766;SDS011;2397;53.576;9.746;2023-04-30T07:15:41;7.80;;;3.10;;
4766;SDS011;2397;53.576;9.746;2023-04-30T07:18:08;5.00;;;2.70;;
4766;SDS011;2397;53.576;9.746;2023-04-30T07:20:35;5.70;;;3.03;;
4766;SDS011;2397;53.576;9.746;2023-04-30T07:23:02;9.60;;;3.20;;
4766;SDS011;2397;53.576;9.746;2023-04-30T07:25:28;4.57;;;2.87;;
4766;SDS011;2397;53.576;9.746;2023-04-30T07:27:55;6.23;;;2.70;;
4766;SDS011;2397;53.576;9.746;2023-04-30T07:30:21;6.13;;;3.13;;
4766;SDS011;2397;53.576;9.746;2023-04-30T07:32:50;2.77;;;2.47;;
4766;SDS011;2397;53.576;9.746;2023-04-30T07:35:17;7.33;;;3.40;;
4766;SDS011;2397;53.576;9.746;2023-04-30T07:37:44;5.17;;;3.00;;
4766;SDS011;2397;53.576;9.746;2023-04-30T07:40:10;9.00;;;2.93;;
4766;SDS011;2397;53.576;9.746;2023-04-30T07:42:42;3.20;;;2.53;;
4766;SDS011;2397;53.576;9.746;2023-04-30T07:45:10;7.43;;;3.23;;
4766;SDS011;2397;53.576;9.746;2023-04-30T07:47:38;4.90;;;2.80;;
4766;SDS011;2397;53.576;9.746;2023-04-30T07:50:05;4.40;;;2.63;;
4766;SDS011;2397;53.576;9.746;2023-04-30T07:52:32;3.73;;;2.83;;
4766;SDS011;2397;53.576;9.746;2023-04-30T07:54:58;3.50;;;2.43;;
4766;SDS011;2397;53.576;9.746;2023-04-30T07:57:25;15.50;;;3.50;;
4766;SDS011;2397;53.576;9.746;2023-04-30T07:59:54;7.10;;;3.10;;
4766;SDS011;2397;53.576;9.746;2023-04-30T08:02:21;13.13;;;3.00;;
4766;SDS011;2397;53.576;9.746;2023-04-30T08:04:48;5.23;;;3.17;;
4766;SDS011;2397;53.576;9.746;2023-04-30T08:07:14;8.43;;;2.67;;
4766;SDS011;2397;53.576;9.746;2023-04-30T08:09:41;7.60;;;3.20;;
4766;SDS011;2397;53.576;9.746;2023-04-30T08:12:08;6.53;;;3.30;;
4766;SDS011;2397;53.576;9.746;2023-04-30T08:14:35;13.03;;;3.20;;
4766;SDS011;2397;53.576;9.746;2023-04-30T08:17:02;4.00;;;2.80;;
4766;SDS011;2397;53.576;9.746;2023-04-30T08:19:28;10.43;;;2.90;;
4766;SDS011;2397;53.576;9.746;2023-04-30T08:21:56;4.80;;;2.90;;
4766;SDS011;2397;53.576;9.746;2023-04-30T08:24:23;7.27;;;3.10;;
4766;SDS011;2397;53.576;9.746;2023-04-30T08:26:50;9.13;;;3.00;;
4766;SDS011;2397;53.576;9.746;2023-04-30T08:29:19;8.50;;;2.87;;
4766;SDS011;2397;53.576;9.746;2023-04-30T08:31:45;8.67;;;3.00;;
4766;SDS011;2397;53.576;9.746;2023-04-30T08:34:12;5.23;;;2.93;;
4766;SDS011;2397;53.576;9.746;2023-04-30T08:36:39;4.37;;;2.93;;
4766;SDS011;2397;53.576;9.746;2023-04-30T08:39:05;6.40;;;2.70;;
4766;SDS011;2397;53.576;9.746;2023-04-30T08:41:32;7.63;;;2.70;;
4766;SDS011;2397;53.576;9.746;2023-04-30T08:44:00;6.97;;;2.57;;
4766;SDS011;2397;53.576;9.746;2023-04-30T08:46:31;6.13;;;2.80;;
4766;SDS011;2397;53.576;9.746;2023-04-30T08:49:01;4.57;;;2.30;;
4766;SDS011;2397;53.576;9.746;2023-04-30T08:51:29;3.43;;;2.37;;
4766;SDS011;2397;53.576;9.746;2023-04-30T08:53:57;2.90;;;2.60;;
4766;SDS011;2397;53.576;9.746;2023-04-30T08:56:24;4.90;;;2.37;;
4766;SDS011;2397;53.576;9.746;2023-04-30T08:58:51;7.13;;;2.77;;
4766;SDS011;2397;53.576;9.746;2023-04-30T09:01:17;3.53;;;2.30;;
4766;SDS011;2397;53.576;9.746;2023-04-30T09:03:45;8.20;;;2.40;;
4766;SDS011;2397;53.576;9.746;2023-04-30T09:06:15;2.00;;;1.90;;
4766;SDS011;2397;53.576;9.746;2023-04-30T09:11:20;7.00;;;3.00;;
4766;SDS011;2397;53.576;9.746;2023-04-30T09:13:51;8.80;;;2.97;;
4766;SDS011;2397;53.576;9.746;2023-04-30T09:16:19;4.60;;;2.83;;
4766;SDS011;2397;53.576;9.746;2023-04-30T09:18:46;8.33;;;2.80;;
4766;SDS011;2397;53.576;9.746;2023-04-30T09:21:13;5.23;;;2.97;;
4766;SDS011;2397;53.576;9.746;2023-04-30T09:24:02;4.37;;;2.47;;
4766;SDS011;2397;53.576;9.746;2023-04-30T09:26:32;4.43;;;2.80;;
4766;SDS011;2397;53.576;9.746;2023-04-30T09:29:00;6.10;;;2.80;;
4766;SDS011;2397;53.576;9.746;2023-04-30T09:31:33;4.90;;;2.80;;
4766;SDS011;2397;53.576;9.746;2023-04-30T09:34:01;5.07;;;2.70;;
4766;SDS011;2397;53.576;9.746;2023-04-30T09:36:28;4.00;;;2.70;;
4766;SDS011;2397;53.576;9.746;2023-04-30T09:41:36;3.90;;;2.83;;
4766;SDS011;2397;53.576;9.746;2023-04-30T09:44:02;6.30;;;3.10;;
4766;SDS011;2397;53.576;9.746;2023-04-30T09:46:33;7.07;;;2.60;;
4766;SDS011;2397;53.576;9.746;2023-04-30T09:49:03;4.07;;;2.77;;
4766;SDS011;2397;53.576;9.746;2023-04-30T09:51:31;5.00;;;2.77;;
4766;SDS011;2397;53.576;9.746;2023-04-30T09:53:57;3.13;;;2.87;;
4766;SDS011;2397;53.576;9.746;2023-04-30T09:56:28;4.20;;;2.60;;
4766;SDS011;2397;53.576;9.746;2023-04-30T09:58:56;7.73;;;2.73;;
4766;SDS011;2397;53.576;9.746;2023-04-30T10:01:26;3.77;;;2.80;;
4766;SDS011;2397;53.576;9.746;2023-04-30T10:03:54;8.00;;;4.03;;
4766;SDS011;2397;53.576;9.746;2023-04-30T10:06:23;8.23;;;2.70;;
4766;SDS011;2397;53.576;9.746;2023-04-30T10:08:52;6.00;;;3.60;;
4766;SDS011;2397;53.576;9.746;2023-04-30T10:11:27;10.03;;;2.90;;
4766;SDS011;2397;53.576;9.746;2023-04-30T10:13:59;4.27;;;2.80;;
4766;SDS011;2397;53.576;9.746;2023-04-30T10:16:32;2.87;;;2.40;;
4766;SDS011;2397;53.576;9.746;2023-04-30T10:21:45;6.07;;;3.50;;
4766;SDS011;2397;53.576;9.746;2023-04-30T10:24:12;6.33;;;4.00;;
4766;SDS011;2397;53.576;9.746;2023-04-30T10:26:40;3.33;;;2.70;;
4766;SDS011;2397;53.576;9.746;2023-04-30T10:29:07;3.20;;;2.90;;
4766;SDS011;2397;53.576;9.746;2023-04-30T10:31:34;6.70;;;3.17;;
4766;SDS011;2397;53.576;9.746;2023-04-30T10:34:05;5.43;;;2.80;;
4766;SDS011;2397;53.576;9.746;2023-04-30T10:36:53;6.70;;;3.40;;
4766;SDS011;2397;53.576;9.746;2023-04-30T10:39:24;3.73;;;3.10;;
4766;SDS011;2397;53.576;9.746;2023-04-30T10:42:01;4.00;;;2.90;;
4766;SDS011;2397;53.576;9.746;2023-04-30T10:44:32;8.93;;;3.00;;
4766;SDS011;2397;53.576;9.746;2023-04-30T10:47:02;8.33;;;3.00;;
4766;SDS011;2397;53.576;9.746;2023-04-30T10:49:29;6.30;;;3.17;;
4766;SDS011;2397;53.576;9.746;2023-04-30T10:51:59;7.07;;;3.20;;
4766;SDS011;2397;53.576;9.746;2023-04-30T10:54:30;5.33;;;3.23;;
4766;SDS011;2397;53.576;9.746;2023-04-30T10:57:13;7.40;;;3.60;;
4766;SDS011;2397;53.576;9.746;2023-04-30T10:59:53;6.00;;;4.10;;
4766;SDS011;2397;53.576;9.746;2023-04-30T11:02:46;5.30;;;2.50;;
4766;SDS011;2397;53.576;9.746;2023-04-30T11:05:17;6.00;;;3.20;;
4766;SDS011;2397;53.576;9.746;2023-04-30T11:08:05;3.43;;;3.13;;
4766;SDS011;2397;53.576;9.746;2023-04-30T11:10:36;8.17;;;3.43;;
4766;SDS011;2397;53.576;9.746;2023-04-30T11:13:06;16.83;;;3.80;;
4766;SDS011;2397;53.576;9.746;2023-04-30T11:15:39;6.63;;;2.90;;
4766;SDS011;2397;53.576;9.746;2023-04-30T11:18:07;7.90;;;3.30;;
4766;SDS011;2397;53.576;9.746;2023-04-30T11:20:47;4.77;;;3.00;;
4766;SDS011;2397;53.576;9.746;2023-04-30T11:23:21;5.47;;;3.03;;
4766;SDS011;2397;53.576;9.746;2023-04-30T11:26:04;7.37;;;3.10;;
4766;SDS011;2397;53.576;9.746;2023-04-30T11:28:32;10.37;;;3.37;;
4766;SDS011;2397;53.576;9.746;2023-04-30T11:31:01;6.07;;;3.63;;
4766;SDS011;2397;53.576;9.746;2023-04-30T11:33:29;4.03;;;3.07;;
4766;SDS011;2397;53.576;9.746;2023-04-30T11:35:58;5.80;;;4.10;;
4766;SDS011;2397;53.576;9.746;2023-04-30T11:38:27;6.10;;;3.13;;
4766;SDS011;2397;53.576;9.746;2023-04-30T11:40:55;7.23;;;3.33;;
4766;SDS011;2397;53.576;9.746;2023-04-30T11:43:23;6.43;;;3.10;;
4766;SDS011;2397;53.576;9.746;2023-04-30T11:46:11;5.80;;;3.67;;
4766;SDS011;2397;53.576;9.746;2023-04-30T11:48:39;3.30;;;3.00;;
4766;SDS011;2397;53.576;9.746;2023-04-30T11:51:20;4.83;;;3.23;;
4766;SDS011;2397;53.576;9.746;2023-04-30T11:53:48;6.50;;;3.50;;
4766;SDS011;2397;53.576;9.746;2023-04-30T11:56:19;7.00;;;3.30;;
4766;SDS011;2397;53.576;9.746;2023-04-30T11:58:51;10.63;;;3.40;;
4766;SDS011;2397;53.576;9.746;2023-04-30T12:01:20;5.97;;;3.40;;
4766;SDS011;2397;53.576;9.746;2023-04-30T12:03:47;4.60;;;3.33;;
4766;SDS011;2397;53.576;9.746;2023-04-30T12:06:25;9.30;;;4.17;;
4766;SDS011;2397;53.576;9.746;2023-04-30T12:08:54;5.20;;;2.87;;
4766;SDS011;2397;53.576;9.746;2023-04-30T12:11:25;7.83;;;3.60;;
4766;SDS011;2397;53.576;9.746;2023-04-30T12:13:54;10.80;;;3.90;;
4766;SDS011;2397;53.576;9.746;2023-04-30T12:19:11;8.40;;;3.67;;
4766;SDS011;2397;53.576;9.746;2023-04-30T12:21:38;8.87;;;3.97;;
4766;SDS011;2397;53.576;9.746;2023-04-30T12:24:06;7.60;;;4.07;;
4766;SDS011;2397;53.576;9.746;2023-04-30T12:26:34;5.10;;;3.87;;
4766;SDS011;2397;53.576;9.746;2023-04-30T12:29:03;9.30;;;3.50;;
4766;SDS011;2397;53.576;9.746;2023-04-30T12:31:31;3.73;;;3.30;;
4766;SDS011;2397;53.576;9.746;2023-04-30T12:34:05;5.43;;;3.30;;
4766;SDS011;2397;53.576;9.746;2023-04-30T12:36:33;9.50;;;3.80;;
4766;SDS011;2397;53.576;9.746;2023-04-30T12:39:11;5.27;;;4.03;;
4766;SDS011;2397;53.576;9.746;2023-04-30T12:41:39;3.73;;;3.40;;
4766;SDS011;2397;53.576;9.746;2023-04-30T12:46:51;4.70;;;3.70;;
4766;SDS011;2397;53.576;9.746;2023-04-30T12:49:29;7.07;;;4.00;;
4766;SDS011;2397;53.576;9.746;2023-04-30T12:52:04;6.03;;;3.20;;
4766;SDS011;2397;53.576;9.746;2023-04-30T12:54:34;5.67;;;3.80;;
4766;SDS011;2397;53.576;9.746;2023-04-30T12:57:06;5.63;;;3.07;;
4766;SDS011;2397;53.576;9.746;2023-04-30T13:02:22;5.27;;;3.10;;
4766;SDS011;2397;53.576;9.746;2023-04-30T13:04:49;5.27;;;3.20;;
4766;SDS011;2397;53.576;9.746;2023-04-30T13:07:16;11.70;;;4.20;;
4766;SDS011;2397;53.576;9.746;2023-04-30T13:09:43;5.20;;;3.30;;
4766;SDS011;2397;53.576;9.746;2023-04-30T13:12:09;10.60;;;3.93;;
4766;SDS011;2397;53.576;9.746;2023-04-30T13:14:36;8.70;;;3.23;;
4766;SDS011;2397;53.576;9.746;2023-04-30T13:17:03;8.97;;;4.37;;
4766;SDS011;2397;53.576;9.746;2023-04-30T13:19:32;5.00;;;3.50;;
4766;SDS011;2397;53.576;9.746;2023-04-30T13:22:00;4.00;;;3.07;;
4766;SDS011;2397;53.576;9.746;2023-04-30T13:24:26;5.40;;;3.40;;
4766;SDS011;2397;53.576;9.746;2023-04-30T13:26:53;6.50;;;3.60;;
4766;SDS011;2397;53.576;9.746;2023-04-30T13:29:20;6.43;;;3.50;;
4766;SDS011;2397;53.576;9.746;2023-04-30T13:31:46;5.87;;;3.47;;
4766;SDS011;2397;53.576;9.746;2023-04-30T13:34:16;3.27;;;2.97;;
4766;SDS011;2397;53.576;9.746;2023-04-30T13:36:42;6.27;;;3.70;;
4766;SDS011;2397;53.576;9.746;2023-04-30T13:39:09;3.90;;;3.60;;
4766;SDS011;2397;53.576;9.746;2023-04-30T13:41:35;6.53;;;3.70;;
4766;SDS011;2397;53.576;9.746;2023-04-30T13:44:02;7.13;;;3.67;;
4766;SDS011;2397;53.576;9.746;2023-04-30T13:46:29;5.50;;;3.60;;
4766;SDS011;2397;53.576;9.746;2023-04-30T13:48:55;6.73;;;3.50;;
4766;SDS011;2397;53.576;9.746;2023-04-30T13:51:22;4.73;;;3.00;;
4766;SDS011;2397;53.576;9.746;2023-04-30T13:53:49;5.10;;;3.13;;
4766;SDS011;2397;53.576;9.746;2023-04-30T13:56:16;3.40;;;3.10;;
4766;SDS011;2397;53.576;9.746;2023-04-30T13:58:42;3.90;;;3.20;;
4766;SDS011;2397;53.576;9.746;2023-04-30T14:01:09;5.03;;;3.43;;
4766;SDS011;2397;53.576;9.746;2023-04-30T14:03:36;6.00;;;3.07;;
4766;SDS011;2397;53.576;9.746;2023-04-30T14:06:03;3.57;;;3.30;;
4766;SDS011;2397;53.576;9.746;2023-04-30T14:08:29;7.33;;;3.23;;
4766;SDS011;2397;53.576;9.746;2023-04-30T14:10:57;4.47;;;3.37;;
4766;SDS011;2397;53.576;9.746;2023-04-30T14:13:23;7.37;;;3.60;;
4766;SDS011;2397;53.576;9.746;2023-04-30T14:15:50;4.07;;;3.20;;
4766;SDS011;2397;53.576;9.746;2023-04-30T14:18:17;4.50;;;3.60;;
4766;SDS011;2397;53.576;9.746;2023-04-30T14:20:47;5.70;;;3.47;;
4766;SDS011;2397;53.576;9.746;2023-04-30T14:23:14;3.23;;;2.50;;
4766;SDS011;2397;53.576;9.746;2023-04-30T14:25:41;6.43;;;3.43;;
4766;SDS011;2397;53.576;9.746;2023-04-30T14:28:07;4.20;;;3.30;;
4766;SDS011;2397;53.576;9.746;2023-04-30T14:30:34;4.80;;;3.33;;
4766;SDS011;2397;53.576;9.746;2023-04-30T14:33:01;4.10;;;3.30;;
4766;SDS011;2397;53.576;9.746;2023-04-30T14:35:27;10.10;;;3.20;;
4766;SDS011;2397;53.576;9.746;2023-04-30T14:37:54;6.23;;;3.40;;
4766;SDS011;2397;53.576;9.746;2023-04-30T14:40:20;7.47;;;3.00;;
4766;SDS011;2397;53.576;9.746;2023-04-30T14:42:46;4.40;;;3.00;;
4766;SDS011;2397;53.576;9.746;2023-04-30T14:45:15;4.07;;;3.00;;
4766;SDS011;2397;53.576;9.746;2023-04-30T14:47:42;4.63;;;2.87;;
4766;SDS011;2397;53.576;9.746;2023-04-30T14:50:08;6.50;;;3.13;;
4766;SDS011;2397;53.576;9.746;2023-04-30T14:52:36;5.77;;;3.13;;
4766;SDS011;2397;53.576;9.746;2023-04-30T14:55:02;7.53;;;3.63;;
4766;SDS011;2397;53.576;9.746;2023-04-30T14:57:30;4.90;;;3.27;;
4766;SDS011;2397;53.576;9.746;2023-04-30T14:59:57;3.00;;;2.70;;
4766;SDS011;2397;53.576;9.746;2023-04-30T15:02:25;3.70;;;2.57;;
4766;SDS011;2397;53.576;9.746;2023-04-30T15:04:52;4.00;;;3.03;;
4766;SDS011;2397;53.576;9.746;2023-04-30T15:07:18;4.57;;;2.60;;
4766;SDS011;2397;53.576;9.746;2023-04-30T15:09:45;4.77;;;4.30;;
4766;SDS011;2397;53.576;9.746;2023-04-30T15:12:12;4.93;;;3.00;;
4766;SDS011;2397;53.576;9.746;2023-04-30T15:14:39;7.13;;;3.23;;
4766;SDS011;2397;53.576;9.746;2023-04-30T15:17:06;4.03;;;2.30;;
4766;SDS011;2397;53.576;9.746;2023-04-30T15:19:33;2.73;;;2.53;;
4766;SDS011;2397;53.576;9.746;2023-04-30T15:21:59;3.17;;;2.60;;
4766;SDS011;2397;53.576;9.746;2023-04-30T15:24:26;6.10;;;2.63;;
4766;SDS011;2397;53.576;9.746;2023-04-30T15:26:52;3.60;;;2.47;;
4766;SDS011;2397;53.576;9.746;2023-04-30T15:29:20;6.30;;;3.00;;
4766;SDS011;2397;53.576;9.746;2023-04-30T15:31:46;4.60;;;2.70;;
4766;SDS011;2397;53.576;9.746;2023-04-30T15:34:13;3.77;;;2.60;;
4766;SDS011;2397;53.576;9.746;2023-04-30T15:36:39;6.77;;;3.20;;
4766;SDS011;2397;53.576;9.746;2023-04-30T15:39:06;4.47;;;2.80;;
4766;SDS011;2397;53.576;9.746;2023-04-30T15:41:32;4.10;;;3.00;;
4766;SDS011;2397;53.576;9.746;2023-04-30T15:43:59;4.07;;;3.10;;
4766;SDS011;2397;53.576;9.746;2023-04-30T15:46:25;8.77;;;3.47;;
4766;SDS011;2397;53.576;9.746;2023-04-30T15:48:52;5.43;;;3.40;;
4766;SDS011;2397;53.576;9.746;2023-04-30T15:51:19;3.03;;;2.77;;
4766;SDS011;2397;53.576;9.746;2023-04-30T15:53:45;4.33;;;2.60;;